createdAt,value
2018-08-04T00:02:37.628Z,94.20
2018-08-04T00:06:45.909Z,94.20
2018-08-04T00:10:54.217Z,94.10
2018-08-04T00:15:04.355Z,94.50
2018-08-04T00:19:12.638Z,94.30
2018-08-04T00:23:21.100Z,94.60
2018-08-04T00:27:29.392Z,94.20
2018-08-04T00:31:37.839Z,95.10
2018-08-04T00:35:46.109Z,95.00
2018-08-04T00:39:54.755Z,94.90
2018-08-04T00:44:03.418Z,95.60
2018-08-04T00:48:11.705Z,95.50
2018-08-04T00:52:20.039Z,95.70
2018-08-04T00:56:28.334Z,95.80
2018-08-04T01:00:36.818Z,95.80
2018-08-04T01:04:45.116Z,96.40
2018-08-04T01:08:53.500Z,97.10
2018-08-04T01:13:03.430Z,97.30
2018-08-04T01:17:11.709Z,96.90
2018-08-04T01:21:20.190Z,97.10
2018-08-04T01:25:28.443Z,97.70
2018-08-04T01:29:37.055Z,98.00
2018-08-04T01:33:49.087Z,98.20
2018-08-04T01:37:57.504Z,98.00
2018-08-04T01:42:06.265Z,98.60
2018-08-04T01:46:14.544Z,98.90
2018-08-04T01:50:23.009Z,99.80
2018-08-04T01:54:32.437Z,99.60
2018-08-04T02:02:48.713Z,99.90
2018-08-04T02:06:57.863Z,99.90
2018-08-04T02:11:06.979Z,99.90
2018-08-04T02:15:15.306Z,99.90
2018-08-04T02:19:23.820Z,99.90
2018-08-04T02:23:33.544Z,99.90
2018-08-04T02:27:41.808Z,99.90
2018-08-04T02:31:50.163Z,99.90
2018-08-04T02:35:58.520Z,99.90
2018-08-04T02:40:07.340Z,99.90
2018-08-04T02:48:24.137Z,99.90
2018-08-04T02:52:33.702Z,99.90
2018-08-04T02:56:43.000Z,99.90
2018-08-04T03:00:51.490Z,99.90
2018-08-04T03:05:00.600Z,99.90
2018-08-04T03:09:10.643Z,99.90
2018-08-04T03:13:19.054Z,99.90
2018-08-04T03:17:28.358Z,99.90
2018-08-04T03:21:36.964Z,99.90
2018-08-04T03:25:45.229Z,99.90
2018-08-04T03:29:53.550Z,99.90
2018-08-04T03:34:03.086Z,99.90
2018-08-04T03:38:11.363Z,99.90
2018-08-04T03:42:19.646Z,99.90
2018-08-04T03:46:28.832Z,99.90
2018-08-04T03:50:37.136Z,99.90
2018-08-04T03:54:45.370Z,99.90
2018-08-04T03:58:53.637Z,99.90
2018-08-04T04:03:02.977Z,99.90
2018-08-04T04:07:11.225Z,99.90
2018-08-04T04:11:19.494Z,99.90
2018-08-04T04:15:28.768Z,99.90
2018-08-04T04:19:37.017Z,99.90
2018-08-04T04:23:45.283Z,99.90
2018-08-04T04:27:53.538Z,99.90
2018-08-04T04:32:03.076Z,99.90
2018-08-04T04:36:11.375Z,99.90
2018-08-04T04:40:19.628Z,99.90
2018-08-04T04:44:29.040Z,99.90
2018-08-04T04:48:37.361Z,99.90
2018-08-04T04:52:45.576Z,99.90
2018-08-04T04:56:53.878Z,99.90
2018-08-04T05:01:03.250Z,99.90
2018-08-04T05:05:11.516Z,99.90
2018-08-04T05:09:19.846Z,99.90
2018-08-04T05:13:29.365Z,99.90
2018-08-04T05:17:37.666Z,99.90
2018-08-04T05:21:46.368Z,99.90
2018-08-04T05:25:54.613Z,99.90
2018-08-04T05:30:02.883Z,99.90
2018-08-04T05:34:11.126Z,99.90
2018-08-04T05:38:19.383Z,99.90
2018-08-04T05:42:28.551Z,99.90
2018-08-04T05:46:36.784Z,99.90
2018-08-04T05:50:45.094Z,99.90
2018-08-04T05:54:53.329Z,99.90
2018-08-04T05:59:02.565Z,99.90
2018-08-04T06:03:10.853Z,99.90
2018-08-04T06:07:19.076Z,99.90
2018-08-04T06:11:28.410Z,99.90
2018-08-04T06:15:36.689Z,99.90
2018-08-04T06:19:44.923Z,99.90
2018-08-04T06:23:53.164Z,99.90
2018-08-04T06:28:02.379Z,99.90
2018-08-04T06:32:10.648Z,99.90
2018-08-04T06:36:18.912Z,99.90
2018-08-04T06:40:27.794Z,99.90
2018-08-04T06:44:36.078Z,99.90
2018-08-04T06:48:46.166Z,99.90
2018-08-04T06:52:54.456Z,99.90
2018-08-04T06:57:05.229Z,99.90
2018-08-04T07:01:13.485Z,99.90
2018-08-04T07:05:21.756Z,99.90
2018-08-04T07:09:31.000Z,99.90
2018-08-04T07:13:39.293Z,99.90
2018-08-04T07:17:47.564Z,99.90
2018-08-04T07:21:56.821Z,99.90
2018-08-04T07:26:05.080Z,99.90
2018-08-04T07:30:14.512Z,99.90
2018-08-04T07:34:22.857Z,99.90
2018-08-04T07:38:32.263Z,99.90
2018-08-04T07:42:40.683Z,99.90
2018-08-04T07:46:48.982Z,99.90
2018-08-04T07:50:58.374Z,99.90
2018-08-04T07:55:06.776Z,99.90
2018-08-04T07:59:15.113Z,99.90
2018-08-04T08:03:23.360Z,99.90
2018-08-04T08:07:32.560Z,99.90
2018-08-04T08:11:40.811Z,99.90
2018-08-04T08:19:57.056Z,99.90
2018-08-04T08:24:05.360Z,99.90
2018-08-04T08:28:13.580Z,99.90
2018-08-04T08:32:21.875Z,99.90
2018-08-04T08:36:30.139Z,99.90
2018-08-04T08:40:38.381Z,99.90
2018-08-04T08:44:46.597Z,99.90
2018-08-04T08:48:55.908Z,99.90
2018-08-04T08:53:04.202Z,99.90
2018-08-04T08:57:12.473Z,99.50
2018-08-04T09:01:20.740Z,99.90
2018-08-04T09:05:28.952Z,99.90
2018-08-04T09:09:37.231Z,99.10
2018-08-04T09:13:46.411Z,99.00
2018-08-04T09:17:54.693Z,99.10
2018-08-04T09:22:02.928Z,96.80
2018-08-04T09:26:11.197Z,95.70
2018-08-04T09:30:19.492Z,96.20
2018-08-04T09:34:27.895Z,94.30
2018-08-04T09:38:36.191Z,95.90
2018-08-04T09:42:46.448Z,95.40
2018-08-04T09:46:54.825Z,94.70
2018-08-04T09:51:03.101Z,93.40
2018-08-04T09:55:12.002Z,92.70
2018-08-04T09:59:20.346Z,92.90
2018-08-04T10:03:28.631Z,91.80
2018-08-04T10:07:38.029Z,92.20
2018-08-04T10:11:47.162Z,90.10
2018-08-04T10:15:55.453Z,90.60
2018-08-04T10:20:03.808Z,90.80
2018-08-04T10:24:12.486Z,90.10
2018-08-04T10:28:20.740Z,89.60
2018-08-04T10:32:29.055Z,88.10
2018-08-04T10:36:37.258Z,88.90
2018-08-04T10:40:45.499Z,91.00
2018-08-04T10:44:53.747Z,88.10
2018-08-04T10:49:02.011Z,85.80
2018-08-04T10:53:10.333Z,90.10
2018-08-04T10:57:18.588Z,89.00
2018-08-04T11:01:27.002Z,87.90
2018-08-04T11:05:35.287Z,87.30
2018-08-04T11:09:43.649Z,85.50
2018-08-04T11:13:52.024Z,86.70
2018-08-04T11:18:01.522Z,85.50
2018-08-04T11:22:09.782Z,83.70
2018-08-04T11:26:18.054Z,84.20
2018-08-04T11:30:26.314Z,84.40
2018-08-04T11:34:35.184Z,82.00
2018-08-04T11:38:43.426Z,83.40
2018-08-04T11:42:51.892Z,81.20
2018-08-04T11:47:01.292Z,82.40
2018-08-04T11:51:09.756Z,82.60
2018-08-04T11:55:18.041Z,81.70
2018-08-04T11:59:27.733Z,83.60
2018-08-04T12:03:36.000Z,84.70
2018-08-04T12:07:44.323Z,81.00
2018-08-04T12:11:52.624Z,81.60
2018-08-04T12:16:01.998Z,79.90
2018-08-04T12:20:10.301Z,82.20
2018-08-04T12:24:18.542Z,80.10
2018-08-04T12:28:26.788Z,77.90
2018-08-04T12:32:35.083Z,79.50
2018-08-04T12:36:43.350Z,80.50
2018-08-04T12:40:51.621Z,81.20
2018-08-04T12:45:00.791Z,81.50
2018-08-04T12:49:09.045Z,83.30
2018-08-04T12:53:17.353Z,84.60
2018-08-04T12:57:25.574Z,80.70
2018-08-04T13:01:33.840Z,82.00
2018-08-04T13:05:42.094Z,82.40
2018-08-04T13:09:50.370Z,82.70
2018-08-04T13:13:59.952Z,82.40
2018-08-04T13:18:08.200Z,82.10
2018-08-04T13:22:16.473Z,80.50
2018-08-04T13:26:24.720Z,78.10
2018-08-04T13:30:33.104Z,79.30
2018-08-04T13:34:41.375Z,77.90
2018-08-04T13:38:49.746Z,79.70
2018-08-04T13:42:58.829Z,80.60
2018-08-04T13:47:07.105Z,79.10
2018-08-04T13:51:15.356Z,78.20
2018-08-04T13:55:23.637Z,79.30
2018-08-04T13:59:32.386Z,80.40
2018-08-04T14:03:40.643Z,79.90
2018-08-04T14:07:48.912Z,77.60
2018-08-04T14:11:57.844Z,75.50
2018-08-04T14:16:06.472Z,77.20
2018-08-04T14:20:15.866Z,78.50
2018-08-04T14:24:24.175Z,79.70
2018-08-04T14:28:32.523Z,76.60
2018-08-04T14:32:40.759Z,76.10
2018-08-04T14:40:57.855Z,79.30
2018-08-04T14:45:06.120Z,76.70
2018-08-04T14:49:15.434Z,76.60
2018-08-04T14:53:23.719Z,77.70
2018-08-04T14:57:32.009Z,77.40
2018-08-04T15:01:40.256Z,78.90
2018-08-04T15:05:48.522Z,76.30
2018-08-04T15:09:56.788Z,76.50
2018-08-04T15:14:07.108Z,76.90
2018-08-04T15:18:15.356Z,76.90
2018-08-04T15:22:23.688Z,76.20
2018-08-04T15:26:32.432Z,76.20
2018-08-04T15:30:40.722Z,76.10
2018-08-04T15:34:49.003Z,77.90
2018-08-04T15:38:57.814Z,77.70
2018-08-04T15:43:06.250Z,79.10
2018-08-04T15:47:14.520Z,79.90
2018-08-04T15:51:22.872Z,80.50
2018-08-04T15:55:31.613Z,78.70
2018-08-04T15:59:39.856Z,79.30
2018-08-04T16:07:56.178Z,79.90
2018-08-04T16:12:04.523Z,81.40
2018-08-04T16:16:12.790Z,82.70
2018-08-04T16:20:21.211Z,83.80
2018-08-04T16:24:31.596Z,84.50
2018-08-04T16:28:39.784Z,84.90
2018-08-04T16:36:56.092Z,86.30
2018-08-04T16:41:04.357Z,87.60
2018-08-04T16:45:12.627Z,88.90
2018-08-04T16:49:20.925Z,88.80
2018-08-04T16:53:31.322Z,89.30
2018-08-04T16:57:39.532Z,90.10
2018-08-04T17:01:47.816Z,90.90
2018-08-04T17:05:56.083Z,91.10
2018-08-04T17:10:04.361Z,91.30
2018-08-04T17:14:12.611Z,91.20
2018-08-04T17:18:20.875Z,91.40
2018-08-04T17:22:30.792Z,91.90
2018-08-04T17:26:39.076Z,91.70
2018-08-04T17:30:47.343Z,92.10
2018-08-04T17:34:58.854Z,92.50
2018-08-04T17:39:08.321Z,92.70
2018-08-04T17:43:16.560Z,93.00
2018-08-04T17:47:25.898Z,92.70
2018-08-04T17:51:34.187Z,92.90
2018-08-04T17:55:42.454Z,92.90
2018-08-04T17:59:50.742Z,93.00
2018-08-04T18:04:00.711Z,93.40
2018-08-04T18:08:08.963Z,93.20
2018-08-04T18:12:17.240Z,93.50
2018-08-04T18:16:25.508Z,94.00
2018-08-04T18:20:33.775Z,94.50
2018-08-04T18:24:42.065Z,94.60
2018-08-04T18:28:50.332Z,94.50
2018-08-04T18:33:00.174Z,94.50
2018-08-04T18:37:08.447Z,94.70
2018-08-04T18:41:16.738Z,95.00
2018-08-04T18:45:24.990Z,95.00
2018-08-04T18:49:33.258Z,95.30
2018-08-04T18:53:41.501Z,95.70
2018-08-04T18:57:49.801Z,97.70
2018-08-04T19:02:00.202Z,98.40
2018-08-04T19:06:08.436Z,99.30
2018-08-04T19:10:16.773Z,99.90
2018-08-04T19:14:25.000Z,99.90
2018-08-04T19:18:33.283Z,99.90
2018-08-04T19:22:41.542Z,99.90
2018-08-04T19:26:49.804Z,99.90
2018-08-04T19:30:59.970Z,99.90
2018-08-04T19:35:08.288Z,99.90
2018-08-04T19:39:16.569Z,99.90
2018-08-04T19:43:24.820Z,99.90
2018-08-04T19:47:33.077Z,99.90
2018-08-04T19:51:41.328Z,99.90
2018-08-04T19:55:49.559Z,99.90
2018-08-04T19:59:58.926Z,99.90
2018-08-04T20:04:07.181Z,99.90
2018-08-04T20:08:15.426Z,99.90
2018-08-04T20:12:23.662Z,99.90
2018-08-04T20:16:32.096Z,99.90
2018-08-04T20:20:40.371Z,99.90
2018-08-04T20:24:48.651Z,99.90
2018-08-04T20:28:56.897Z,99.90
2018-08-04T20:33:05.212Z,99.90
2018-08-04T20:37:13.468Z,99.90
2018-08-04T20:41:21.744Z,99.90
2018-08-04T20:45:31.370Z,99.90
2018-08-04T20:49:39.629Z,99.90
2018-08-04T20:53:47.876Z,99.90
2018-08-04T20:57:56.096Z,99.90
2018-08-04T21:06:14.401Z,99.90
2018-08-04T21:10:22.618Z,99.90
2018-08-04T21:14:31.873Z,99.90
2018-08-04T21:18:40.121Z,99.90
2018-08-04T21:22:48.402Z,99.90
2018-08-04T21:26:56.740Z,99.90
2018-08-04T21:31:05.047Z,99.90
2018-08-04T21:35:13.328Z,99.90
2018-08-04T21:39:21.618Z,99.90
2018-08-04T21:43:31.370Z,99.90
2018-08-04T21:47:39.650Z,99.90
2018-08-04T21:51:50.069Z,99.90
2018-08-04T21:55:59.478Z,99.90
2018-08-04T22:00:11.814Z,99.90
2018-08-04T22:04:20.085Z,99.90
2018-08-04T22:08:39.683Z,99.90
2018-08-04T22:12:47.988Z,99.90
2018-08-04T22:17:02.380Z,99.90
2018-08-04T22:21:10.686Z,99.90
2018-08-04T22:25:22.274Z,99.90
2018-08-04T22:29:31.952Z,99.90
2018-08-04T22:33:40.248Z,99.90
2018-08-04T22:37:48.563Z,99.90
2018-08-04T22:41:56.815Z,99.90
2018-08-04T22:46:08.464Z,99.90
2018-08-04T22:50:16.728Z,99.90
2018-08-04T22:54:24.991Z,99.90
2018-08-04T22:58:33.279Z,99.90
2018-08-04T23:02:41.536Z,99.90
2018-08-04T23:06:49.761Z,99.90
2018-08-04T23:10:59.849Z,99.90
2018-08-04T23:15:08.151Z,99.90
2018-08-04T23:19:16.437Z,99.90
2018-08-04T23:23:24.700Z,99.90
2018-08-04T23:27:32.983Z,99.90
2018-08-04T23:31:41.258Z,99.90
2018-08-04T23:35:49.504Z,99.90
2018-08-04T23:39:58.934Z,99.90
2018-08-04T23:44:07.193Z,99.90
2018-08-04T23:48:15.466Z,99.90
2018-08-04T23:52:23.956Z,99.90
2018-08-04T23:56:32.272Z,99.90
